sensor_id;sensor_type;location;lat;lon;timestamp;P1;durP1;ratioP1;P2;durP2;ratioP2
49738;SDS011;53662;50.114;8.626;2024-02-16T00:00:45;9.32;;;5.35;;
49738;SDS011;53662;50.114;8.626;2024-02-16T00:03:11;9.68;;;5.07;;
49738;SDS011;53662;50.114;8.626;2024-02-16T00:05:37;10.13;;;5.75;;
49738;SDS011;53662;50.114;8.626;2024-02-16T00:08:04;10.02;;;5.07;;
49738;SDS011;53662;50.114;8.626;2024-02-16T00:10:30;17.10;;;6.20;;
49738;SDS011;53662;50.114;8.626;2024-02-16T00:12:56;13.48;;;4.95;;
49738;SDS011;53662;50.114;8.626;2024-02-16T00:15:22;12.88;;;5.15;;
49738;SDS011;53662;50.114;8.626;2024-02-16T00:17:48;10.60;;;5.18;;
49738;SDS011;53662;50.114;8.626;2024-02-16T00:20:14;14.63;;;5.63;;
49738;SDS011;53662;50.114;8.626;2024-02-16T00:22:40;41.42;;;25.52;;
49738;SDS011;53662;50.114;8.626;2024-02-16T00:25:06;34.70;;;20.20;;
49738;SDS011;53662;50.114;8.626;2024-02-16T00:27:32;15.52;;;7.35;;
49738;SDS011;53662;50.114;8.626;2024-02-16T00:29:58;11.55;;;6.13;;
49738;SDS011;53662;50.114;8.626;2024-02-16T00:32:24;15.30;;;5.45;;
49738;SDS011;53662;50.114;8.626;2024-02-16T00:34:55;14.00;;;5.75;;
49738;SDS011;53662;50.114;8.626;2024-02-16T00:37:21;10.40;;;5.32;;
49738;SDS011;53662;50.114;8.626;2024-02-16T00:39:47;13.80;;;5.82;;
49738;SDS011;53662;50.114;8.626;2024-02-16T00:42:13;8.73;;;5.32;;
49738;SDS011;53662;50.114;8.626;2024-02-16T00:44:38;8.93;;;5.05;;
49738;SDS011;53662;50.114;8.626;2024-02-16T00:47:04;10.82;;;4.78;;
49738;SDS011;53662;50.114;8.626;2024-02-16T00:49:31;13.23;;;6.10;;
49738;SDS011;53662;50.114;8.626;2024-02-16T00:51:57;5.90;;;5.00;;
49738;SDS011;53662;50.114;8.626;2024-02-16T00:54:23;11.82;;;5.25;;
49738;SDS011;53662;50.114;8.626;2024-02-16T00:56:49;14.07;;;5.07;;
49738;SDS011;53662;50.114;8.626;2024-02-16T00:59:14;8.43;;;5.05;;
49738;SDS011;53662;50.114;8.626;2024-02-16T01:01:41;7.78;;;4.93;;
49738;SDS011;53662;50.114;8.626;2024-02-16T01:04:07;6.88;;;4.78;;
49738;SDS011;53662;50.114;8.626;2024-02-16T01:06:33;9.85;;;5.22;;
49738;SDS011;53662;50.114;8.626;2024-02-16T01:08:59;10.18;;;5.30;;
49738;SDS011;53662;50.114;8.626;2024-02-16T01:11:25;12.05;;;4.90;;
49738;SDS011;53662;50.114;8.626;2024-02-16T01:13:52;5.05;;;4.50;;
49738;SDS011;53662;50.114;8.626;2024-02-16T01:16:17;8.45;;;5.13;;
49738;SDS011;53662;50.114;8.626;2024-02-16T01:18:43;7.03;;;4.95;;
49738;SDS011;53662;50.114;8.626;2024-02-16T01:21:10;12.63;;;5.32;;
49738;SDS011;53662;50.114;8.626;2024-02-16T01:23:35;12.20;;;5.15;;
49738;SDS011;53662;50.114;8.626;2024-02-16T01:26:01;9.27;;;5.53;;
49738;SDS011;53662;50.114;8.626;2024-02-16T01:28:28;7.90;;;4.75;;
49738;SDS011;53662;50.114;8.626;2024-02-16T01:30:53;11.68;;;4.95;;
49738;SDS011;53662;50.114;8.626;2024-02-16T01:33:21;8.27;;;5.00;;
49738;SDS011;53662;50.114;8.626;2024-02-16T01:35:47;9.15;;;4.07;;
49738;SDS011;53662;50.114;8.626;2024-02-16T01:38:13;6.50;;;4.72;;
49738;SDS011;53662;50.114;8.626;2024-02-16T01:40:39;7.10;;;4.72;;
49738;SDS011;53662;50.114;8.626;2024-02-16T01:43:05;7.53;;;4.55;;
49738;SDS011;53662;50.114;8.626;2024-02-16T01:45:31;9.27;;;4.65;;
49738;SDS011;53662;50.114;8.626;2024-02-16T01:47:57;8.48;;;4.53;;
49738;SDS011;53662;50.114;8.626;2024-02-16T01:50:24;16.30;;;4.78;;
49738;SDS011;53662;50.114;8.626;2024-02-16T01:52:50;8.20;;;4.40;;
49738;SDS011;53662;50.114;8.626;2024-02-16T01:55:16;8.80;;;4.07;;
49738;SDS011;53662;50.114;8.626;2024-02-16T01:57:43;8.85;;;4.80;;
49738;SDS011;53662;50.114;8.626;2024-02-16T02:00:09;11.57;;;4.50;;
49738;SDS011;53662;50.114;8.626;2024-02-16T02:02:35;7.95;;;4.72;;
49738;SDS011;53662;50.114;8.626;2024-02-16T02:05:02;8.27;;;4.78;;
49738;SDS011;53662;50.114;8.626;2024-02-16T02:07:28;13.20;;;4.68;;
49738;SDS011;53662;50.114;8.626;2024-02-16T02:09:54;8.60;;;4.90;;
49738;SDS011;53662;50.114;8.626;2024-02-16T02:12:20;11.55;;;4.63;;
49738;SDS011;53662;50.114;8.626;2024-02-16T02:14:47;11.45;;;4.80;;
49738;SDS011;53662;50.114;8.626;2024-02-16T02:17:13;7.22;;;4.22;;
49738;SDS011;53662;50.114;8.626;2024-02-16T02:19:39;11.70;;;4.85;;
49738;SDS011;53662;50.114;8.626;2024-02-16T02:22:15;6.35;;;4.40;;
49738;SDS011;53662;50.114;8.626;2024-02-16T02:24:41;10.23;;;4.90;;
49738;SDS011;53662;50.114;8.626;2024-02-16T02:27:07;6.95;;;4.38;;
49738;SDS011;53662;50.114;8.626;2024-02-16T02:29:33;8.73;;;4.32;;
49738;SDS011;53662;50.114;8.626;2024-02-16T02:31:59;22.88;;;5.35;;
49738;SDS011;53662;50.114;8.626;2024-02-16T02:34:25;13.18;;;4.75;;
49738;SDS011;53662;50.114;8.626;2024-02-16T02:36:51;14.90;;;4.80;;
49738;SDS011;53662;50.114;8.626;2024-02-16T02:39:16;13.05;;;4.97;;
49738;SDS011;53662;50.114;8.626;2024-02-16T02:41:42;8.27;;;4.60;;
49738;SDS011;53662;50.114;8.626;2024-02-16T02:44:08;12.85;;;4.13;;
49738;SDS011;53662;50.114;8.626;2024-02-16T02:46:34;5.72;;;3.95;;
49738;SDS011;53662;50.114;8.626;2024-02-16T02:49:00;5.93;;;4.70;;
49738;SDS011;53662;50.114;8.626;2024-02-16T02:51:27;8.93;;;4.38;;
49738;SDS011;53662;50.114;8.626;2024-02-16T02:53:53;9.85;;;4.32;;
49738;SDS011;53662;50.114;8.626;2024-02-16T02:56:18;9.55;;;4.85;;
49738;SDS011;53662;50.114;8.626;2024-02-16T02:58:44;5.35;;;4.15;;
49738;SDS011;53662;50.114;8.626;2024-02-16T03:01:10;11.82;;;4.30;;
49738;SDS011;53662;50.114;8.626;2024-02-16T03:03:36;13.02;;;4.30;;
49738;SDS011;53662;50.114;8.626;2024-02-16T03:06:02;8.45;;;3.75;;
49738;SDS011;53662;50.114;8.626;2024-02-16T03:08:28;9.82;;;4.18;;
49738;SDS011;53662;50.114;8.626;2024-02-16T03:10:54;11.30;;;4.15;;
49738;SDS011;53662;50.114;8.626;2024-02-16T03:13:20;10.57;;;4.38;;
49738;SDS011;53662;50.114;8.626;2024-02-16T03:15:46;16.98;;;4.38;;
49738;SDS011;53662;50.114;8.626;2024-02-16T03:18:12;10.02;;;5.10;;
49738;SDS011;53662;50.114;8.626;2024-02-16T03:20:39;9.75;;;5.00;;
49738;SDS011;53662;50.114;8.626;2024-02-16T03:23:05;11.15;;;4.65;;
49738;SDS011;53662;50.114;8.626;2024-02-16T03:25:31;10.10;;;4.45;;
49738;SDS011;53662;50.114;8.626;2024-02-16T03:27:57;19.60;;;4.30;;
49738;SDS011;53662;50.114;8.626;2024-02-16T03:30:23;9.38;;;4.43;;
49738;SDS011;53662;50.114;8.626;2024-02-16T03:32:49;7.28;;;3.88;;
49738;SDS011;53662;50.114;8.626;2024-02-16T03:35:15;11.35;;;4.78;;
49738;SDS011;53662;50.114;8.626;2024-02-16T03:37:41;5.80;;;4.63;;
49738;SDS011;53662;50.114;8.626;2024-02-16T03:40:07;5.65;;;4.07;;
49738;SDS011;53662;50.114;8.626;2024-02-16T03:42:34;11.90;;;4.30;;
49738;SDS011;53662;50.114;8.626;2024-02-16T03:45:00;12.70;;;4.50;;
49738;SDS011;53662;50.114;8.626;2024-02-16T03:47:26;10.07;;;4.57;;
49738;SDS011;53662;50.114;8.626;2024-02-16T03:49:52;12.38;;;4.22;;
49738;SDS011;53662;50.114;8.626;2024-02-16T03:52:18;8.07;;;4.22;;
49738;SDS011;53662;50.114;8.626;2024-02-16T03:54:44;10.43;;;4.43;;
49738;SDS011;53662;50.114;8.626;2024-02-16T03:57:13;11.35;;;4.63;;
49738;SDS011;53662;50.114;8.626;2024-02-16T03:59:41;10.38;;;4.45;;
49738;SDS011;53662;50.114;8.626;2024-02-16T04:02:08;11.85;;;4.05;;
49738;SDS011;53662;50.114;8.626;2024-02-16T04:04:34;10.27;;;4.47;;
49738;SDS011;53662;50.114;8.626;2024-02-16T04:07:00;7.00;;;4.00;;
49738;SDS011;53662;50.114;8.626;2024-02-16T04:09:26;7.57;;;3.90;;
49738;SDS011;53662;50.114;8.626;2024-02-16T04:11:52;6.90;;;4.15;;
49738;SDS011;53662;50.114;8.626;2024-02-16T04:14:18;7.63;;;3.92;;
49738;SDS011;53662;50.114;8.626;2024-02-16T04:16:44;6.32;;;3.90;;
49738;SDS011;53662;50.114;8.626;2024-02-16T04:19:10;6.90;;;3.80;;
49738;SDS011;53662;50.114;8.626;2024-02-16T04:21:36;12.05;;;3.88;;
49738;SDS011;53662;50.114;8.626;2024-02-16T04:24:02;9.40;;;3.63;;
49738;SDS011;53662;50.114;8.626;2024-02-16T04:26:28;13.07;;;4.25;;
49738;SDS011;53662;50.114;8.626;2024-02-16T04:28:54;10.45;;;4.05;;
49738;SDS011;53662;50.114;8.626;2024-02-16T04:31:20;10.73;;;4.65;;
49738;SDS011;53662;50.114;8.626;2024-02-16T04:33:46;8.23;;;3.97;;
49738;SDS011;53662;50.114;8.626;2024-02-16T04:36:12;7.40;;;4.03;;
49738;SDS011;53662;50.114;8.626;2024-02-16T04:38:40;7.28;;;3.70;;
49738;SDS011;53662;50.114;8.626;2024-02-16T04:41:06;7.10;;;4.13;;
49738;SDS011;53662;50.114;8.626;2024-02-16T04:43:33;8.88;;;3.92;;
49738;SDS011;53662;50.114;8.626;2024-02-16T04:45:59;9.88;;;3.67;;
49738;SDS011;53662;50.114;8.626;2024-02-16T04:48:25;7.88;;;3.63;;
49738;SDS011;53662;50.114;8.626;2024-02-16T04:50:51;12.50;;;4.00;;
49738;SDS011;53662;50.114;8.626;2024-02-16T04:53:17;9.15;;;3.63;;
49738;SDS011;53662;50.114;8.626;2024-02-16T04:55:43;11.75;;;3.97;;
49738;SDS011;53662;50.114;8.626;2024-02-16T04:58:08;13.27;;;3.90;;
49738;SDS011;53662;50.114;8.626;2024-02-16T05:00:38;11.95;;;4.47;;
49738;SDS011;53662;50.114;8.626;2024-02-16T05:03:04;10.70;;;3.50;;
49738;SDS011;53662;50.114;8.626;2024-02-16T05:05:30;6.47;;;3.72;;
49738;SDS011;53662;50.114;8.626;2024-02-16T05:07:56;5.10;;;3.70;;
49738;SDS011;53662;50.114;8.626;2024-02-16T05:10:22;8.70;;;4.18;;
49738;SDS011;53662;50.114;8.626;2024-02-16T05:12:48;8.05;;;4.15;;
49738;SDS011;53662;50.114;8.626;2024-02-16T05:15:14;7.63;;;3.65;;
49738;SDS011;53662;50.114;8.626;2024-02-16T05:17:40;10.70;;;4.30;;
49738;SDS011;53662;50.114;8.626;2024-02-16T05:20:10;10.95;;;3.83;;
49738;SDS011;53662;50.114;8.626;2024-02-16T05:22:40;6.57;;;3.80;;
49738;SDS011;53662;50.114;8.626;2024-02-16T05:25:06;7.03;;;4.22;;
49738;SDS011;53662;50.114;8.626;2024-02-16T05:27:32;9.00;;;4.18;;
49738;SDS011;53662;50.114;8.626;2024-02-16T05:29:59;8.30;;;3.80;;
49738;SDS011;53662;50.114;8.626;2024-02-16T05:32:25;4.68;;;3.60;;
49738;SDS011;53662;50.114;8.626;2024-02-16T05:34:51;6.95;;;3.67;;
49738;SDS011;53662;50.114;8.626;2024-02-16T05:37:17;7.32;;;4.00;;
49738;SDS011;53662;50.114;8.626;2024-02-16T05:39:45;8.50;;;4.63;;
49738;SDS011;53662;50.114;8.626;2024-02-16T05:42:32;9.13;;;4.40;;
49738;SDS011;53662;50.114;8.626;2024-02-16T05:44:58;7.85;;;3.70;;
49738;SDS011;53662;50.114;8.626;2024-02-16T05:47:24;7.78;;;3.92;;
49738;SDS011;53662;50.114;8.626;2024-02-16T05:49:52;6.95;;;3.90;;
49738;SDS011;53662;50.114;8.626;2024-02-16T05:52:18;4.88;;;3.90;;
49738;SDS011;53662;50.114;8.626;2024-02-16T05:54:44;6.95;;;4.47;;
49738;SDS011;53662;50.114;8.626;2024-02-16T05:57:10;10.32;;;4.07;;
49738;SDS011;53662;50.114;8.626;2024-02-16T05:59:37;8.30;;;4.22;;
49738;SDS011;53662;50.114;8.626;2024-02-16T06:02:03;7.30;;;4.15;;
49738;SDS011;53662;50.114;8.626;2024-02-16T06:04:30;9.82;;;4.13;;
49738;SDS011;53662;50.114;8.626;2024-02-16T06:06:56;6.07;;;4.07;;
49738;SDS011;53662;50.114;8.626;2024-02-16T06:09:22;7.60;;;4.55;;
49738;SDS011;53662;50.114;8.626;2024-02-16T06:11:48;6.28;;;4.07;;
49738;SDS011;53662;50.114;8.626;2024-02-16T06:14:14;10.45;;;4.70;;
49738;SDS011;53662;50.114;8.626;2024-02-16T06:16:40;6.45;;;4.22;;
49738;SDS011;53662;50.114;8.626;2024-02-16T06:19:08;8.32;;;4.20;;
49738;SDS011;53662;50.114;8.626;2024-02-16T06:21:38;12.35;;;5.13;;
49738;SDS011;53662;50.114;8.626;2024-02-16T06:24:04;8.70;;;4.75;;
49738;SDS011;53662;50.114;8.626;2024-02-16T06:26:30;9.55;;;4.10;;
49738;SDS011;53662;50.114;8.626;2024-02-16T06:28:56;10.43;;;4.40;;
49738;SDS011;53662;50.114;8.626;2024-02-16T06:31:23;7.80;;;4.47;;
49738;SDS011;53662;50.114;8.626;2024-02-16T06:33:49;4.82;;;4.43;;
49738;SDS011;53662;50.114;8.626;2024-02-16T06:36:15;8.73;;;4.45;;
49738;SDS011;53662;50.114;8.626;2024-02-16T06:38:40;12.32;;;5.38;;
49738;SDS011;53662;50.114;8.626;2024-02-16T06:41:06;9.88;;;4.57;;
49738;SDS011;53662;50.114;8.626;2024-02-16T06:43:32;6.88;;;4.47;;
49738;SDS011;53662;50.114;8.626;2024-02-16T06:45:58;5.88;;;4.47;;
49738;SDS011;53662;50.114;8.626;2024-02-16T06:48:24;6.18;;;4.28;;
49738;SDS011;53662;50.114;8.626;2024-02-16T06:50:50;8.02;;;4.60;;
49738;SDS011;53662;50.114;8.626;2024-02-16T06:53:16;7.25;;;4.80;;
49738;SDS011;53662;50.114;8.626;2024-02-16T06:55:42;12.20;;;5.22;;
49738;SDS011;53662;50.114;8.626;2024-02-16T06:58:08;6.47;;;4.50;;
49738;SDS011;53662;50.114;8.626;2024-02-16T07:00:34;12.18;;;4.88;;
49738;SDS011;53662;50.114;8.626;2024-02-16T07:03:00;9.18;;;5.05;;
49738;SDS011;53662;50.114;8.626;2024-02-16T07:05:26;10.23;;;4.82;;
49738;SDS011;53662;50.114;8.626;2024-02-16T07:07:53;15.27;;;4.97;;
49738;SDS011;53662;50.114;8.626;2024-02-16T07:10:19;7.03;;;5.15;;
49738;SDS011;53662;50.114;8.626;2024-02-16T07:12:45;9.45;;;4.97;;
49738;SDS011;53662;50.114;8.626;2024-02-16T07:15:11;14.93;;;5.68;;
49738;SDS011;53662;50.114;8.626;2024-02-16T07:17:37;9.00;;;5.20;;
49738;SDS011;53662;50.114;8.626;2024-02-16T07:20:03;13.25;;;5.38;;
49738;SDS011;53662;50.114;8.626;2024-02-16T07:22:30;8.63;;;5.10;;
49738;SDS011;53662;50.114;8.626;2024-02-16T07:24:57;8.75;;;4.63;;
49738;SDS011;53662;50.114;8.626;2024-02-16T07:27:25;11.27;;;4.63;;
49738;SDS011;53662;50.114;8.626;2024-02-16T07:29:50;10.18;;;4.50;;
49738;SDS011;53662;50.114;8.626;2024-02-16T07:32:17;10.10;;;4.45;;
49738;SDS011;53662;50.114;8.626;2024-02-16T07:34:46;12.55;;;4.63;;
49738;SDS011;53662;50.114;8.626;2024-02-16T07:37:16;11.40;;;5.93;;
49738;SDS011;53662;50.114;8.626;2024-02-16T07:39:42;11.40;;;5.10;;
49738;SDS011;53662;50.114;8.626;2024-02-16T07:42:08;10.90;;;5.50;;
49738;SDS011;53662;50.114;8.626;2024-02-16T07:44:34;13.15;;;5.28;;
49738;SDS011;53662;50.114;8.626;2024-02-16T07:47:01;9.52;;;5.07;;
49738;SDS011;53662;50.114;8.626;2024-02-16T07:49:27;14.20;;;5.80;;
49738;SDS011;53662;50.114;8.626;2024-02-16T07:51:53;9.40;;;5.22;;
49738;SDS011;53662;50.114;8.626;2024-02-16T07:54:19;14.00;;;5.95;;
49738;SDS011;53662;50.114;8.626;2024-02-16T07:56:44;7.03;;;5.07;;
49738;SDS011;53662;50.114;8.626;2024-02-16T07:59:10;8.23;;;5.68;;
49738;SDS011;53662;50.114;8.626;2024-02-16T08:01:36;8.82;;;5.75;;
49738;SDS011;53662;50.114;8.626;2024-02-16T08:04:04;13.18;;;5.63;;
49738;SDS011;53662;50.114;8.626;2024-02-16T08:06:30;13.95;;;5.55;;
49738;SDS011;53662;50.114;8.626;2024-02-16T08:08:56;12.60;;;7.43;;
49738;SDS011;53662;50.114;8.626;2024-02-16T08:11:22;9.95;;;5.68;;
49738;SDS011;53662;50.114;8.626;2024-02-16T08:13:48;10.85;;;6.60;;
49738;SDS011;53662;50.114;8.626;2024-02-16T08:16:14;12.30;;;5.88;;
49738;SDS011;53662;50.114;8.626;2024-02-16T08:18:43;10.27;;;5.70;;
49738;SDS011;53662;50.114;8.626;2024-02-16T08:21:10;12.10;;;5.95;;
49738;SDS011;53662;50.114;8.626;2024-02-16T08:23:36;12.40;;;6.57;;
49738;SDS011;53662;50.114;8.626;2024-02-16T08:26:03;11.00;;;6.13;;
49738;SDS011;53662;50.114;8.626;2024-02-16T08:28:29;12.18;;;6.90;;
49738;SDS011;53662;50.114;8.626;2024-02-16T08:30:55;10.60;;;5.70;;
49738;SDS011;53662;50.114;8.626;2024-02-16T08:33:23;14.10;;;5.72;;
49738;SDS011;53662;50.114;8.626;2024-02-16T08:35:49;7.85;;;5.72;;
49738;SDS011;53662;50.114;8.626;2024-02-16T08:38:18;10.00;;;5.82;;
49738;SDS011;53662;50.114;8.626;2024-02-16T08:40:44;9.13;;;6.13;;
49738;SDS011;53662;50.114;8.626;2024-02-16T08:43:11;12.60;;;5.80;;
49738;SDS011;53662;50.114;8.626;2024-02-16T08:45:37;10.00;;;5.40;;
49738;SDS011;53662;50.114;8.626;2024-02-16T08:48:03;19.13;;;6.85;;
49738;SDS011;53662;50.114;8.626;2024-02-16T08:50:29;10.05;;;5.97;;
49738;SDS011;53662;50.114;8.626;2024-02-16T08:52:58;13.95;;;6.60;;
49738;SDS011;53662;50.114;8.626;2024-02-16T08:55:26;14.35;;;6.97;;
49738;SDS011;53662;50.114;8.626;2024-02-16T08:57:52;7.35;;;5.25;;
49738;SDS011;53662;50.114;8.626;2024-02-16T09:00:18;6.60;;;5.93;;
49738;SDS011;53662;50.114;8.626;2024-02-16T09:02:44;10.60;;;6.18;;
49738;SDS011;53662;50.114;8.626;2024-02-16T09:05:11;7.25;;;5.60;;
49738;SDS011;53662;50.114;8.626;2024-02-16T09:07:40;7.20;;;5.75;;
49738;SDS011;53662;50.114;8.626;2024-02-16T09:10:06;11.48;;;6.22;;
49738;SDS011;53662;50.114;8.626;2024-02-16T09:12:35;13.73;;;6.47;;
49738;SDS011;53662;50.114;8.626;2024-02-16T09:15:01;10.70;;;7.10;;
49738;SDS011;53662;50.114;8.626;2024-02-16T09:17:27;10.95;;;5.55;;
49738;SDS011;53662;50.114;8.626;2024-02-16T09:20:10;13.73;;;6.35;;
49738;SDS011;53662;50.114;8.626;2024-02-16T09:22:40;11.75;;;5.75;;
49738;SDS011;53662;50.114;8.626;2024-02-16T09:25:06;13.05;;;6.10;;
49738;SDS011;53662;50.114;8.626;2024-02-16T09:27:40;11.75;;;6.32;;
49738;SDS011;53662;50.114;8.626;2024-02-16T09:30:15;8.63;;;5.78;;
49738;SDS011;53662;50.114;8.626;2024-02-16T09:32:41;12.98;;;6.43;;
49738;SDS011;53662;50.114;8.626;2024-02-16T09:35:07;9.85;;;6.05;;
49738;SDS011;53662;50.114;8.626;2024-02-16T09:37:34;13.93;;;5.78;;
49738;SDS011;53662;50.114;8.626;2024-02-16T09:40:03;12.75;;;6.25;;
49738;SDS011;53662;50.114;8.626;2024-02-16T09:42:30;10.77;;;6.07;;
49738;SDS011;53662;50.114;8.626;2024-02-16T09:45:00;7.13;;;5.82;;
49738;SDS011;53662;50.114;8.626;2024-02-16T09:47:29;17.52;;;6.05;;
49738;SDS011;53662;50.114;8.626;2024-02-16T09:49:57;9.05;;;5.90;;
49738;SDS011;53662;50.114;8.626;2024-02-16T09:52:23;13.73;;;6.18;;
49738;SDS011;53662;50.114;8.626;2024-02-16T09:54:49;14.50;;;6.80;;
49738;SDS011;53662;50.114;8.626;2024-02-16T09:57:18;16.92;;;6.53;;
49738;SDS011;53662;50.114;8.626;2024-02-16T09:59:44;8.32;;;5.97;;
49738;SDS011;53662;50.114;8.626;2024-02-16T10:02:10;10.68;;;5.95;;
49738;SDS011;53662;50.114;8.626;2024-02-16T10:04:36;11.25;;;6.10;;
49738;SDS011;53662;50.114;8.626;2024-02-16T10:07:04;9.27;;;6.18;;
49738;SDS011;53662;50.114;8.626;2024-02-16T10:09:31;14.40;;;6.15;;
49738;SDS011;53662;50.114;8.626;2024-02-16T10:11:59;18.80;;;5.97;;
49738;SDS011;53662;50.114;8.626;2024-02-16T10:14:25;7.03;;;5.45;;
49738;SDS011;53662;50.114;8.626;2024-02-16T10:16:59;8.75;;;5.75;;
49738;SDS011;53662;50.114;8.626;2024-02-16T10:19:28;10.23;;;6.00;;
49738;SDS011;53662;50.114;8.626;2024-02-16T10:22:04;7.13;;;5.90;;
49738;SDS011;53662;50.114;8.626;2024-02-16T10:24:36;9.63;;;5.78;;
49738;SDS011;53662;50.114;8.626;2024-02-16T10:27:04;7.25;;;5.30;;
49738;SDS011;53662;50.114;8.626;2024-02-16T10:29:30;9.10;;;5.20;;
49738;SDS011;53662;50.114;8.626;2024-02-16T10:31:58;9.23;;;5.55;;
49738;SDS011;53662;50.114;8.626;2024-02-16T10:34:27;10.93;;;5.38;;
49738;SDS011;53662;50.114;8.626;2024-02-16T10:36:56;9.40;;;5.22;;
49738;SDS011;53662;50.114;8.626;2024-02-16T10:39:22;9.75;;;4.82;;
49738;SDS011;53662;50.114;8.626;2024-02-16T10:41:51;8.00;;;4.88;;
49738;SDS011;53662;50.114;8.626;2024-02-16T10:44:17;16.90;;;5.25;;
49738;SDS011;53662;50.114;8.626;2024-02-16T10:46:43;14.80;;;4.80;;
49738;SDS011;53662;50.114;8.626;2024-02-16T10:49:09;11.93;;;4.88;;
49738;SDS011;53662;50.114;8.626;2024-02-16T10:51:36;4.10;;;3.67;;
49738;SDS011;53662;50.114;8.626;2024-02-16T10:54:03;11.98;;;4.85;;
49738;SDS011;53662;50.114;8.626;2024-02-16T10:59:00;18.77;;;4.85;;
49738;SDS011;53662;50.114;8.626;2024-02-16T11:01:27;11.73;;;5.25;;
49738;SDS011;53662;50.114;8.626;2024-02-16T11:04:00;6.55;;;5.15;;
49738;SDS011;53662;50.114;8.626;2024-02-16T11:06:27;7.60;;;4.88;;
49738;SDS011;53662;50.114;8.626;2024-02-16T11:08:53;9.75;;;4.25;;
49738;SDS011;53662;50.114;8.626;2024-02-16T11:11:23;4.50;;;3.92;;
49738;SDS011;53662;50.114;8.626;2024-02-16T11:13:49;7.00;;;4.32;;
49738;SDS011;53662;50.114;8.626;2024-02-16T11:16:15;12.13;;;4.85;;
49738;SDS011;53662;50.114;8.626;2024-02-16T11:18:45;6.57;;;4.68;;
49738;SDS011;53662;50.114;8.626;2024-02-16T11:21:15;13.68;;;4.47;;
49738;SDS011;53662;50.114;8.626;2024-02-16T11:23:41;4.65;;;4.07;;
49738;SDS011;53662;50.114;8.626;2024-02-16T11:26:11;6.97;;;3.78;;
49738;SDS011;53662;50.114;8.626;2024-02-16T11:28:38;7.03;;;4.45;;
49738;SDS011;53662;50.114;8.626;2024-02-16T11:31:05;6.75;;;4.70;;
49738;SDS011;53662;50.114;8.626;2024-02-16T11:33:32;8.45;;;4.38;;
49738;SDS011;53662;50.114;8.626;2024-02-16T11:35:59;6.80;;;4.97;;
49738;SDS011;53662;50.114;8.626;2024-02-16T11:38:25;7.78;;;4.22;;
49738;SDS011;53662;50.114;8.626;2024-02-16T11:40:55;5.55;;;4.47;;
49738;SDS011;53662;50.114;8.626;2024-02-16T11:43:21;7.18;;;4.65;;
49738;SDS011;53662;50.114;8.626;2024-02-16T11:45:48;4.70;;;4.28;;
49738;SDS011;53662;50.114;8.626;2024-02-16T11:48:18;7.97;;;4.60;;
49738;SDS011;53662;50.114;8.626;2024-02-16T11:50:46;6.38;;;4.45;;
49738;SDS011;53662;50.114;8.626;2024-02-16T11:53:15;10.68;;;4.25;;
49738;SDS011;53662;50.114;8.626;2024-02-16T11:55:45;9.18;;;4.60;;
49738;SDS011;53662;50.114;8.626;2024-02-16T11:58:12;4.43;;;4.03;;
49738;SDS011;53662;50.114;8.626;2024-02-16T12:00:39;11.93;;;5.22;;
49738;SDS011;53662;50.114;8.626;2024-02-16T12:03:06;8.93;;;4.70;;
49738;SDS011;53662;50.114;8.626;2024-02-16T12:05:32;9.38;;;4.45;;
49738;SDS011;53662;50.114;8.626;2024-02-16T12:07:58;6.97;;;3.90;;
49738;SDS011;53662;50.114;8.626;2024-02-16T12:10:25;7.78;;;4.30;;
49738;SDS011;53662;50.114;8.626;2024-02-16T12:12:52;18.30;;;4.53;;
49738;SDS011;53662;50.114;8.626;2024-02-16T12:15:18;4.90;;;3.83;;
49738;SDS011;53662;50.114;8.626;2024-02-16T12:17:45;8.13;;;4.50;;
49738;SDS011;53662;50.114;8.626;2024-02-16T12:20:11;10.13;;;4.38;;
49738;SDS011;53662;50.114;8.626;2024-02-16T12:22:38;7.60;;;3.38;;
49738;SDS011;53662;50.114;8.626;2024-02-16T12:25:04;4.70;;;3.67;;
49738;SDS011;53662;50.114;8.626;2024-02-16T12:27:31;4.35;;;3.72;;
49738;SDS011;53662;50.114;8.626;2024-02-16T12:29:56;5.93;;;3.90;;
49738;SDS011;53662;50.114;8.626;2024-02-16T12:32:22;5.93;;;3.45;;
49738;SDS011;53662;50.114;8.626;2024-02-16T12:34:48;5.57;;;2.90;;
49738;SDS011;53662;50.114;8.626;2024-02-16T12:37:14;7.30;;;3.08;;
49738;SDS011;53662;50.114;8.626;2024-02-16T12:39:40;5.07;;;2.97;;
49738;SDS011;53662;50.114;8.626;2024-02-16T12:42:06;5.32;;;3.17;;
49738;SDS011;53662;50.114;8.626;2024-02-16T12:44:33;6.78;;;2.85;;
49738;SDS011;53662;50.114;8.626;2024-02-16T12:46:59;7.28;;;2.92;;
49738;SDS011;53662;50.114;8.626;2024-02-16T12:49:25;3.25;;;2.15;;
49738;SDS011;53662;50.114;8.626;2024-02-16T12:51:51;4.78;;;2.80;;
49738;SDS011;53662;50.114;8.626;2024-02-16T12:54:17;5.25;;;2.67;;
49738;SDS011;53662;50.114;8.626;2024-02-16T12:56:47;6.65;;;2.55;;
49738;SDS011;53662;50.114;8.626;2024-02-16T12:59:16;6.22;;;2.40;;
49738;SDS011;53662;50.114;8.626;2024-02-16T13:01:42;6.38;;;2.70;;
49738;SDS011;53662;50.114;8.626;2024-02-16T13:04:08;3.88;;;2.00;;
49738;SDS011;53662;50.114;8.626;2024-02-16T13:06:34;3.30;;;2.13;;
49738;SDS011;53662;50.114;8.626;2024-02-16T13:09:01;4.30;;;2.45;;
49738;SDS011;53662;50.114;8.626;2024-02-16T13:11:27;4.78;;;2.42;;
49738;SDS011;53662;50.114;8.626;2024-02-16T13:13:54;3.78;;;2.63;;
49738;SDS011;53662;50.114;8.626;2024-02-16T13:16:20;2.13;;;1.98;;
49738;SDS011;53662;50.114;8.626;2024-02-16T13:18:46;5.75;;;1.70;;
49738;SDS011;53662;50.114;8.626;2024-02-16T13:21:12;11.00;;;2.72;;
49738;SDS011;53662;50.114;8.626;2024-02-16T13:23:39;3.25;;;2.50;;
49738;SDS011;53662;50.114;8.626;2024-02-16T13:26:05;5.57;;;2.15;;
49738;SDS011;53662;50.114;8.626;2024-02-16T13:28:31;4.75;;;2.47;;
49738;SDS011;53662;50.114;8.626;2024-02-16T13:30:58;2.95;;;2.17;;
49738;SDS011;53662;50.114;8.626;2024-02-16T13:33:24;6.18;;;2.60;;
49738;SDS011;53662;50.114;8.626;2024-02-16T13:35:50;4.20;;;2.15;;
49738;SDS011;53662;50.114;8.626;2024-02-16T13:38:16;4.38;;;2.08;;
49738;SDS011;53662;50.114;8.626;2024-02-16T13:40:42;7.32;;;2.75;;
49738;SDS011;53662;50.114;8.626;2024-02-16T13:43:08;2.60;;;2.10;;
49738;SDS011;53662;50.114;8.626;2024-02-16T13:45:55;5.80;;;2.50;;
49738;SDS011;53662;50.114;8.626;2024-02-16T13:48:22;5.32;;;2.00;;
49738;SDS011;53662;50.114;8.626;2024-02-16T13:50:49;4.57;;;2.10;;
49738;SDS011;53662;50.114;8.626;2024-02-16T13:53:15;5.32;;;2.00;;
49738;SDS011;53662;50.114;8.626;2024-02-16T13:55:42;6.68;;;2.10;;
49738;SDS011;53662;50.114;8.626;2024-02-16T13:58:09;7.30;;;2.65;;
49738;SDS011;53662;50.114;8.626;2024-02-16T14:00:35;3.90;;;1.85;;
49738;SDS011;53662;50.114;8.626;2024-02-16T14:03:02;6.00;;;2.47;;
49738;SDS011;53662;50.114;8.626;2024-02-16T14:05:28;7.25;;;2.47;;
49738;SDS011;53662;50.114;8.626;2024-02-16T14:07:54;10.15;;;2.53;;
49738;SDS011;53662;50.114;8.626;2024-02-16T14:10:20;7.68;;;2.10;;
49738;SDS011;53662;50.114;8.626;2024-02-16T14:12:47;2.42;;;2.17;;
49738;SDS011;53662;50.114;8.626;2024-02-16T14:15:16;4.70;;;2.08;;
49738;SDS011;53662;50.114;8.626;2024-02-16T14:17:42;7.65;;;2.33;;
49738;SDS011;53662;50.114;8.626;2024-02-16T14:20:18;8.50;;;2.20;;
49738;SDS011;53662;50.114;8.626;2024-02-16T14:22:49;4.13;;;2.00;;
49738;SDS011;53662;50.114;8.626;2024-02-16T14:25:17;6.40;;;2.38;;
49738;SDS011;53662;50.114;8.626;2024-02-16T14:27:50;2.67;;;1.98;;
49738;SDS011;53662;50.114;8.626;2024-02-16T14:30:27;4.65;;;2.25;;
49738;SDS011;53662;50.114;8.626;2024-02-16T14:33:14;9.63;;;2.67;;
49738;SDS011;53662;50.114;8.626;2024-02-16T14:39:14;6.03;;;2.20;;
49738;SDS011;53662;50.114;8.626;2024-02-16T14:44:46;8.95;;;2.55;;
49738;SDS011;53662;50.114;8.626;2024-02-16T14:47:14;17.98;;;2.78;;
49738;SDS011;53662;50.114;8.626;2024-02-16T14:52:34;7.07;;;2.60;;